createdAt,value
2016-02-18T15:29:26.268Z,1012.12
2016-02-18T15:30:26.256Z,1012.12
2016-02-18T15:31:26.227Z,1012.13
2016-02-18T15:32:26.199Z,1012.17
2016-02-18T15:33:26.186Z,1012.25
2016-02-18T15:34:26.188Z,1012.21
2016-02-18T15:35:26.160Z,1012.21
2016-02-18T15:36:26.068Z,1012.25
2016-02-18T15:37:26.057Z,1012.21
2016-02-18T15:38:59.889Z,1012.23
2016-02-18T15:39:59.798Z,1012.2
2016-02-18T15:40:59.770Z,1012.23
2016-02-18T15:41:59.757Z,1012.34
2016-02-18T15:42:59.728Z,1012.33
2016-02-18T15:43:59.762Z,1012.25
2016-02-18T15:44:59.687Z,1012.28
2016-02-18T15:45:59.658Z,1012.23
2016-02-18T15:46:59.661Z,1012.24
2016-02-18T15:47:59.632Z,1012.29
2016-02-18T15:48:59.604Z,1012.25
2016-02-18T15:49:59.575Z,1012.31
2016-02-18T15:50:59.562Z,1012.29
2016-02-18T15:51:59.550Z,1012.32
2016-02-18T15:52:59.536Z,1012.31
2016-02-18T15:53:59.491Z,1012.34
2016-02-18T15:54:59.480Z,1012.36
2016-02-18T15:55:59.482Z,1012.35
2016-02-18T15:56:59.438Z,1012.41
2016-02-18T15:57:59.409Z,1012.35
2016-02-18T15:58:59.396Z,1012.41
2016-02-18T15:59:59.368Z,1012.48
2016-02-18T16:00:59.355Z,1012.49
2016-02-18T16:01:59.342Z,1012.38
2016-02-18T16:02:59.313Z,1012.4
2016-02-18T16:03:59.316Z,1012.57
2016-02-18T16:04:59.335Z,1012.62
2016-02-18T16:05:59.259Z,1012.55
2016-02-18T16:12:55.418Z,1011.97
2016-02-18T16:35:13.040Z,1012.35
2016-02-18T16:36:12.980Z,1012.35
2016-02-18T16:37:12.967Z,1012.34
2016-02-18T16:38:12.938Z,1012.33
2016-02-18T16:39:12.988Z,1012.38
2016-02-18T16:40:12.896Z,1012.38
2016-02-18T16:41:12.885Z,1012.33
2016-02-18T16:42:12.918Z,1012.36
2016-02-18T16:43:12.873Z,1012.49
2016-02-18T16:44:12.830Z,1012.5
2016-02-18T16:45:12.817Z,1012.5
2016-02-18T16:46:12.803Z,1012.49
2016-02-18T16:47:12.776Z,1012.54
2016-02-18T16:48:12.762Z,1012.52
2016-02-18T16:49:12.750Z,1012.55
2016-02-18T16:50:12.736Z,1012.52
2016-02-18T16:51:12.708Z,1012.5
2016-02-18T16:52:12.695Z,1012.51
2016-02-18T16:53:12.760Z,1012.53
2016-02-18T16:54:12.669Z,1012.51
2016-02-18T16:55:12.719Z,1012.55
2016-02-18T16:56:12.628Z,1012.54
2016-02-18T16:57:12.614Z,1012.59
2016-02-18T16:58:12.602Z,1012.59
2016-02-18T16:59:12.589Z,1012.6
2016-02-18T17:00:12.575Z,1012.6
2016-02-18T17:01:12.547Z,1012.62
2016-02-18T17:02:12.535Z,1012.66
2016-02-18T17:03:12.521Z,1012.66
2016-02-18T17:04:12.509Z,1012.69
2016-02-18T17:05:12.480Z,1012.71
2016-02-18T17:06:12.466Z,1012.69
2016-02-18T17:07:12.455Z,1012.73
2016-02-18T17:08:12.441Z,1012.73
2016-02-18T17:09:12.429Z,1012.73
2016-02-18T17:10:12.431Z,1012.73
2016-02-18T17:11:12.387Z,1012.71
2016-02-18T17:12:12.374Z,1012.75
2016-02-18T17:13:12.360Z,1012.75
2016-02-18T17:14:12.348Z,1012.74
2016-02-18T17:15:12.382Z,1012.77
2016-02-18T17:16:12.306Z,1012.76
2016-02-18T17:17:12.356Z,1012.8
2016-02-18T17:18:12.281Z,1012.76
2016-02-18T17:19:12.252Z,1012.75
2016-02-18T17:20:12.254Z,1012.73
2016-02-18T17:21:12.226Z,1012.8
2016-02-18T17:22:12.214Z,1012.76
2016-02-18T17:23:12.184Z,1012.73
2016-02-18T17:24:12.171Z,1012.82
2016-02-18T17:25:12.159Z,1012.8
2016-02-18T17:26:12.145Z,1012.8
2016-02-18T17:27:12.133Z,1012.82
2016-02-18T17:28:12.105Z,1012.81
2016-02-18T17:29:12.091Z,1012.84
2016-02-18T17:30:12.078Z,1012.87
2016-02-18T17:31:12.066Z,1012.87
2016-02-18T17:32:12.068Z,1012.88
2016-02-18T17:33:12.039Z,1012.94
2016-02-18T17:34:12.011Z,1012.91
2016-02-18T17:35:11.999Z,1012.88
2016-02-18T17:36:11.985Z,1012.91
2016-02-18T17:37:11.957Z,1012.97
2016-02-18T17:38:11.944Z,1012.96
2016-02-18T17:39:11.930Z,1012.98
2016-02-18T17:40:11.996Z,1012.94
2016-02-18T17:41:11.904Z,1012.92
2016-02-18T17:42:11.893Z,1012.96
2016-02-18T17:43:11.863Z,1012.93
2016-02-18T17:44:11.850Z,1012.96
2016-02-18T17:45:11.838Z,1012.92
2016-02-18T17:46:11.824Z,1012.86
2016-02-18T17:47:11.795Z,1012.9
2016-02-18T17:48:11.784Z,1012.84
2016-02-18T17:49:11.770Z,1012.83
2016-02-18T17:50:11.757Z,1012.82
2016-02-18T17:51:11.745Z,1012.87
2016-02-18T17:52:11.715Z,1012.84
2016-02-18T17:53:11.703Z,1012.84
2016-02-18T17:54:11.690Z,1012.81
2016-02-18T17:55:11.677Z,1012.86
2016-02-18T17:56:11.664Z,1012.83
2016-02-18T17:57:11.635Z,1012.9
2016-02-18T17:58:11.623Z,1012.86
2016-02-18T17:59:11.609Z,1012.88
2016-02-18T18:00:11.596Z,1012.88
2016-02-18T18:01:11.569Z,1012.88
2016-02-18T18:02:11.555Z,1012.84
2016-02-18T18:03:11.541Z,1012.9
2016-02-18T18:04:11.530Z,1012.89
2016-02-18T18:05:11.500Z,1012.87
2016-02-18T18:06:11.488Z,1012.89
2016-02-18T18:07:11.475Z,1012.91
2016-02-18T18:08:11.462Z,1012.91
2016-02-18T18:09:11.449Z,1012.89
2016-02-18T18:10:11.421Z,1012.9
2016-02-18T18:11:11.407Z,1012.89
2016-02-18T18:12:11.394Z,1012.94
2016-02-18T18:13:11.381Z,1012.96
2016-02-18T18:14:11.369Z,1012.94
2016-02-18T18:15:11.340Z,1012.97
2016-02-18T18:16:11.326Z,1012.99
2016-02-18T18:17:11.315Z,1013.03
2016-02-18T18:18:11.301Z,1013.02
2016-02-18T18:19:11.287Z,1013.04
2016-02-18T18:20:11.260Z,1012.99
2016-02-18T18:21:11.247Z,1013.07
2016-02-18T18:22:11.234Z,1013.05
2016-02-18T18:23:11.237Z,1013.04
2016-02-18T18:24:11.208Z,1013.01
2016-02-18T18:25:11.195Z,1013.07
2016-02-18T18:26:11.167Z,1013.06
2016-02-18T18:27:11.153Z,1013.11
2016-02-18T18:28:11.156Z,1013.12
2016-02-18T18:29:11.127Z,1013.09
2016-02-18T18:30:11.114Z,1013.13
2016-02-18T18:31:11.086Z,1013.13
2016-02-18T18:32:11.072Z,1013.15
2016-02-18T18:33:11.060Z,1013.13
2016-02-18T18:34:11.047Z,1013.12
2016-02-18T18:35:11.034Z,1013.09
2016-02-18T18:36:11.005Z,1013.07
2016-02-18T18:37:10.993Z,1013.12
2016-02-18T18:38:10.979Z,1013.08
2016-02-18T18:39:10.966Z,1013.06
2016-02-18T18:40:10.954Z,1013.07
2016-02-18T18:41:10.926Z,1013.08
2016-02-18T18:42:10.913Z,1013.12
2016-02-18T18:43:10.899Z,1013.06
2016-02-18T18:44:10.887Z,1013.12
2016-02-18T18:45:10.874Z,1013.13
2016-02-18T18:46:10.860Z,1013.12
2016-02-18T18:47:10.832Z,1013.14
2016-02-18T18:48:10.820Z,1013.11
2016-02-18T18:49:10.806Z,1013.1
2016-02-18T18:50:10.778Z,1013.15
2016-02-18T18:51:10.780Z,1013.11
2016-02-18T18:52:10.752Z,1013.16
2016-02-18T18:53:10.739Z,1013.18
2016-02-18T18:54:10.726Z,1013.18
2016-02-18T18:55:10.698Z,1013.21
2016-02-18T18:56:10.684Z,1013.22
2016-02-18T18:57:10.672Z,1013.17
2016-02-18T18:58:10.659Z,1013.13
2016-02-18T18:59:10.645Z,1013.2
2016-02-18T19:00:10.617Z,1013.21
2016-02-18T19:01:10.605Z,1013.21
2016-02-18T19:02:10.592Z,1013.22
2016-02-18T19:03:10.578Z,1013.28
2016-02-18T19:04:10.565Z,1013.24
2016-02-18T19:05:10.537Z,1013.26
2016-02-18T19:06:10.524Z,1013.28
2016-02-18T19:07:10.510Z,1013.26
2016-02-18T19:08:10.499Z,1013.23
2016-02-18T19:09:10.469Z,1013.25
2016-02-18T19:10:10.457Z,1013.25
2016-02-18T19:11:10.444Z,1013.27
2016-02-18T19:12:10.430Z,1013.24
2016-02-18T19:13:10.418Z,1013.25
2016-02-18T19:14:10.405Z,1013.23
2016-02-18T19:15:10.376Z,1013.26
2016-02-18T19:16:10.363Z,1013.2
2016-02-18T19:17:10.351Z,1013.2
2016-02-18T19:18:10.338Z,1013.19
2016-02-18T19:19:10.309Z,1013.23
2016-02-18T19:20:10.295Z,1013.18
2016-02-18T19:21:10.284Z,1013.19
2016-02-18T19:22:10.270Z,1013.22
2016-02-18T19:23:10.256Z,1013.22
2016-02-18T19:24:10.229Z,1013.26
2016-02-18T19:25:10.215Z,1013.22
2016-02-18T19:26:10.203Z,1013.22
2016-02-18T19:27:10.190Z,1013.24
2016-02-18T19:28:10.161Z,1013.25
2016-02-18T19:29:10.148Z,1013.24
2016-02-18T19:30:10.151Z,1013.23
2016-02-18T19:31:10.122Z,1013.24
2016-02-18T19:32:10.094Z,1013.23
2016-02-18T19:33:10.081Z,1013.23
2016-02-18T19:34:10.069Z,1013.26
2016-02-18T19:35:10.055Z,1013.31
2016-02-18T19:36:10.042Z,1013.29
2016-02-18T19:37:10.030Z,1013.32
2016-02-18T19:38:10.016Z,1013.29
2016-02-18T19:39:09.987Z,1013.3
2016-02-18T19:40:09.975Z,1013.29
2016-02-18T19:41:09.962Z,1013.28
2016-02-18T19:42:09.949Z,1013.3
2016-02-18T19:43:09.936Z,1013.27
2016-02-18T19:44:09.907Z,1013.29
2016-02-18T19:45:09.894Z,1013.3
2016-02-18T19:46:09.882Z,1013.26
2016-02-18T19:47:09.868Z,1013.23
2016-02-18T19:48:09.840Z,1013.23
2016-02-18T19:49:09.843Z,1013.23
2016-02-18T19:50:09.815Z,1013.25
2016-02-18T19:51:09.801Z,1013.28
2016-02-18T19:52:09.788Z,1013.22
2016-02-18T19:53:09.760Z,1013.25
2016-02-18T19:54:09.748Z,1013.24
2016-02-18T19:55:09.734Z,1013.27
2016-02-18T19:56:09.721Z,1013.26
2016-02-18T19:57:09.708Z,1013.28
2016-02-18T19:58:09.695Z,1013.26
2016-02-18T19:59:09.667Z,1013.27
2016-02-18T20:00:09.653Z,1013.3
2016-02-18T20:01:09.641Z,1013.25
2016-02-18T20:02:09.628Z,1013.29
2016-02-18T20:03:09.614Z,1013.31
2016-02-18T20:04:09.586Z,1013.34
2016-02-18T20:05:09.573Z,1013.37
2016-02-18T20:06:09.560Z,1013.35
2016-02-18T20:07:09.548Z,1013.38
2016-02-18T20:08:09.535Z,1013.37
2016-02-18T20:09:09.505Z,1013.41
2016-02-18T20:10:09.509Z,1013.4
2016-02-18T20:11:09.480Z,1013.41
2016-02-18T20:12:09.466Z,1013.42
2016-02-18T20:13:09.454Z,1013.42
2016-02-18T20:14:09.426Z,1013.41
2016-02-18T20:15:09.401Z,1013.43
2016-02-18T20:16:09.375Z,1013.48
2016-02-18T20:17:09.350Z,1013.47
2016-02-18T20:18:09.308Z,1013.48
2016-02-18T20:19:09.283Z,1013.49
2016-02-18T20:20:09.264Z,1013.51
2016-02-18T20:21:09.248Z,1013.52
2016-02-18T20:22:09.229Z,1013.54
2016-02-18T20:23:09.212Z,1013.55
2016-02-18T20:24:09.195Z,1013.49
2016-02-18T20:25:09.163Z,1013.49
2016-02-18T20:26:09.150Z,1013.52
2016-02-18T20:27:09.135Z,1013.56
2016-02-18T20:28:09.105Z,1013.54
2016-02-18T20:29:09.091Z,1013.51
2016-02-18T20:30:09.077Z,1013.59
2016-02-18T20:31:09.063Z,1013.59
2016-02-18T20:32:09.034Z,1013.59
2016-02-18T20:33:09.020Z,1013.69
2016-02-18T20:34:09.007Z,1013.65
2016-02-18T20:35:08.993Z,1013.68
2016-02-18T20:36:08.980Z,1013.69
2016-02-18T20:37:08.951Z,1013.67
2016-02-18T20:38:08.939Z,1013.7
2016-02-18T20:39:08.926Z,1013.71
2016-02-18T20:40:08.913Z,1013.71
2016-02-18T20:41:08.901Z,1013.69
2016-02-18T20:42:08.871Z,1013.75
2016-02-18T20:43:08.859Z,1013.74
2016-02-18T20:44:08.846Z,1013.74
2016-02-18T20:45:08.832Z,1013.75
2016-02-18T20:46:08.804Z,1013.69
2016-02-18T20:47:08.792Z,1013.68
2016-02-18T20:48:08.779Z,1013.65
2016-02-18T20:49:08.765Z,1013.67
2016-02-18T20:50:08.753Z,1013.7
2016-02-18T20:51:08.724Z,1013.63
2016-02-18T20:52:08.711Z,1013.67
2016-02-18T20:53:08.697Z,1013.63
2016-02-18T20:54:08.685Z,1013.64
2016-02-18T20:55:08.672Z,1013.62
2016-02-18T20:56:08.644Z,1013.61
2016-02-18T20:57:08.631Z,1013.57
2016-02-18T20:58:08.617Z,1013.62
2016-02-18T20:59:08.605Z,1013.63
2016-02-18T21:00:08.592Z,1013.6
2016-02-18T21:01:08.564Z,1013.66
2016-02-18T21:02:08.550Z,1013.56
2016-02-18T21:03:08.538Z,1013.67
2016-02-18T21:04:08.525Z,1013.67
2016-02-18T21:05:08.559Z,1013.66
2016-02-18T21:06:08.485Z,1013.65
2016-02-18T21:07:08.472Z,1013.62
2016-02-18T21:08:08.460Z,1013.63
2016-02-18T21:09:08.446Z,1013.62
2016-02-18T21:10:08.433Z,1013.59
2016-02-18T21:11:08.404Z,1013.61
2016-02-18T21:12:08.392Z,1013.64
2016-02-18T21:13:08.520Z,1013.67
2016-02-18T21:14:08.367Z,1013.74
2016-02-18T21:15:08.353Z,1013.7
2016-02-18T21:16:08.339Z,1013.73
2016-02-18T21:17:08.312Z,1013.74
2016-02-18T21:18:08.298Z,1013.8
2016-02-18T21:19:08.285Z,1013.78
2016-02-18T21:20:08.273Z,1013.75
2016-02-18T21:21:08.260Z,1013.79
2016-02-18T21:22:08.231Z,1013.77
2016-02-18T21:23:08.219Z,1013.76
2016-02-18T21:24:08.205Z,1013.79
2016-02-18T21:25:08.192Z,1013.77
2016-02-18T21:26:08.180Z,1013.79
2016-02-18T21:27:08.151Z,1013.75
2016-02-18T21:28:08.138Z,1013.76
2016-02-18T21:29:08.124Z,1013.75
2016-02-18T21:30:08.113Z,1013.74
2016-02-18T21:31:08.099Z,1013.72
2016-02-18T21:32:08.085Z,1013.75
2016-02-18T21:33:08.057Z,1013.77
2016-02-18T21:34:08.045Z,1013.8
2016-02-18T21:35:08.032Z,1013.79
2016-02-18T21:36:08.003Z,1013.82
2016-02-18T21:37:07.990Z,1013.76
2016-02-18T21:38:07.977Z,1013.78
2016-02-18T21:39:07.965Z,1013.76
2016-02-18T21:40:07.951Z,1013.77
2016-02-18T21:41:07.923Z,1013.8
2016-02-18T21:42:07.910Z,1013.77
2016-02-18T21:43:07.897Z,1013.73
2016-02-18T21:44:07.884Z,1013.72
2016-02-18T21:45:07.871Z,1013.73
2016-02-18T21:46:07.842Z,1013.71
2016-02-18T21:47:07.831Z,1013.75
2016-02-18T21:48:07.817Z,1013.79
2016-02-18T21:49:07.789Z,1013.76
2016-02-18T21:50:07.775Z,1013.74
2016-02-18T21:51:07.762Z,1013.76
2016-02-18T21:52:07.749Z,1013.77
2016-02-18T21:53:07.736Z,1013.75
2016-02-18T21:54:07.723Z,1013.73
2016-02-18T21:55:07.694Z,1013.75
2016-02-18T21:56:07.683Z,1013.82
2016-02-18T21:57:07.669Z,1013.87
2016-02-18T21:58:07.655Z,1013.87
2016-02-18T21:59:07.644Z,1013.84
2016-02-18T22:00:07.615Z,1013.83
2016-02-18T22:01:07.601Z,1013.83
2016-02-18T22:02:07.589Z,1013.85
2016-02-18T22:03:07.576Z,1013.86
2016-02-18T22:04:07.547Z,1013.82
2016-02-18T22:05:07.535Z,1013.83
2016-02-18T22:06:07.521Z,1013.88
2016-02-18T22:07:07.509Z,1013.89
2016-02-18T22:08:07.496Z,1013.91
2016-02-18T22:09:07.498Z,1013.91
2016-02-18T22:10:07.454Z,1013.93
2016-02-18T22:11:07.457Z,1013.9
2016-02-18T22:12:07.428Z,1013.94
2016-02-18T22:13:07.415Z,1013.94
2016-02-18T22:14:07.387Z,1013.88
2016-02-18T22:15:07.373Z,1013.86
2016-02-18T22:16:07.361Z,1013.88
2016-02-18T22:17:07.348Z,1013.87
2016-02-18T22:18:07.334Z,1013.86
2016-02-18T22:19:07.306Z,1013.88
2016-02-18T22:20:07.294Z,1013.85
2016-02-18T22:21:07.280Z,1013.81
2016-02-18T22:22:07.268Z,1013.81
2016-02-18T22:23:07.255Z,1013.86
2016-02-18T22:24:07.225Z,1013.84
2016-02-18T22:25:07.214Z,1013.84
2016-02-18T22:26:07.200Z,1013.84
2016-02-18T22:27:07.187Z,1013.85
2016-02-18T22:28:07.174Z,1013.89
2016-02-18T22:29:07.146Z,1013.85
2016-02-18T22:30:07.132Z,1013.88
2016-02-18T22:31:07.120Z,1013.86
2016-02-18T22:32:07.107Z,1013.89
2016-02-18T22:33:07.093Z,1013.89
2016-02-18T22:34:07.066Z,1013.87
2016-02-18T22:35:07.052Z,1013.87
2016-02-18T22:36:07.039Z,1013.83
2016-02-18T22:37:07.027Z,1013.88
2016-02-18T22:38:07.013Z,1013.86
2016-02-18T22:39:07.001Z,1013.91
2016-02-18T22:40:06.973Z,1013.9
2016-02-18T22:41:06.959Z,1013.89
2016-02-18T22:42:06.946Z,1013.9
2016-02-18T22:43:06.934Z,1013.92
2016-02-18T22:44:06.920Z,1013.94
2016-02-18T22:45:06.892Z,1013.91
2016-02-18T22:46:06.879Z,1013.94
2016-02-18T22:47:06.866Z,1013.97
2016-02-18T22:48:06.854Z,1013.98
2016-02-18T22:49:06.825Z,1013.99
2016-02-18T22:50:06.811Z,1013.98
2016-02-18T22:51:06.798Z,1013.98
2016-02-18T22:52:06.786Z,1013.96
2016-02-18T22:53:06.772Z,1013.97
2016-02-18T22:54:06.760Z,1014
2016-02-18T22:55:06.747Z,1014.06
2016-02-18T22:56:06.718Z,1014
2016-02-18T22:57:06.706Z,1014
2016-02-18T22:58:06.692Z,1013.99
2016-02-18T22:59:06.679Z,1014.05
2016-02-18T23:00:06.652Z,1014.05
2016-02-18T23:01:06.669Z,1014.08
2016-02-18T23:02:06.624Z,1014.08
2016-02-18T23:03:06.613Z,1014.08
2016-02-18T23:04:06.583Z,1014.07
2016-02-18T23:05:06.571Z,1014.08
2016-02-18T23:06:06.558Z,1014.09
2016-02-18T23:07:06.545Z,1014.08
2016-02-18T23:08:06.532Z,1014.06
2016-02-18T23:09:06.504Z,1014.11
2016-02-18T23:10:06.490Z,1014.08
2016-02-18T23:11:06.476Z,1014.07
2016-02-18T23:12:06.464Z,1014.1
2016-02-18T23:13:06.436Z,1014.11
2016-02-18T23:14:06.423Z,1014.09
2016-02-18T23:15:06.410Z,1014.14
2016-02-18T23:16:06.397Z,1014.15
2016-02-18T23:17:06.384Z,1014.17
2016-02-18T23:18:06.356Z,1014.13
2016-02-18T23:19:06.342Z,1014.13
2016-02-18T23:20:06.330Z,1014.18
2016-02-18T23:21:06.316Z,1014.21
2016-02-18T23:22:06.288Z,1014.24
2016-02-18T23:23:06.276Z,1014.25
2016-02-18T23:24:06.262Z,1014.24
2016-02-18T23:25:06.250Z,1014.24
2016-02-18T23:26:06.236Z,1014.21
2016-02-18T23:27:06.208Z,1014.22
2016-02-18T23:28:06.195Z,1014.24
2016-02-18T23:29:06.182Z,1014.24
2016-02-18T23:30:06.169Z,1014.25
2016-02-18T23:31:06.156Z,1014.28
2016-02-18T23:32:06.128Z,1014.23
2016-02-18T23:33:06.115Z,1014.25
2016-02-18T23:34:06.102Z,1014.28
2016-02-18T23:35:06.088Z,1014.27
2016-02-18T23:36:06.076Z,1014.28
2016-02-18T23:37:06.047Z,1014.28
2016-02-18T23:38:06.034Z,1014.35
2016-02-18T23:39:06.021Z,1014.31
2016-02-18T23:40:06.009Z,1014.31
2016-02-18T23:41:05.979Z,1014.31
2016-02-18T23:42:05.967Z,1014.36
2016-02-18T23:43:05.954Z,1014.38
2016-02-18T23:44:05.940Z,1014.38
2016-02-18T23:45:05.929Z,1014.38
2016-02-18T23:46:05.915Z,1014.4
2016-02-18T23:47:05.886Z,1014.4
2016-02-18T23:48:05.874Z,1014.39
2016-02-18T23:49:05.861Z,1014.4
2016-02-18T23:50:05.848Z,1014.43
2016-02-18T23:51:05.820Z,1014.37
2016-02-18T23:52:05.806Z,1014.42
2016-02-18T23:53:05.794Z,1014.43
2016-02-18T23:54:05.781Z,1014.38
2016-02-18T23:55:05.767Z,1014.38
2016-02-18T23:56:05.754Z,1014.4
2016-02-18T23:57:05.726Z,1014.4
2016-02-18T23:58:05.713Z,1014.43
2016-02-18T23:59:05.700Z,1014.41
